Time;durP1;ratioP1;P1;durP2;ratioP2;P2;SDS_P1;SDS_P2;PMS_P1;PMS_P2;Temp;Humidity;BMP_temperature;BMP_pressure;BME280_temperature;BME280_humidity;BME280_pressure;Samples;Min_cycle;Max_cycle;Signal;HPM_P1;HPM_P2
2021/07/31 00:00:02;;;;;;;2.57;1.93;;;;;;;17.28;71.71;96164.63;3577147;39;20765;-72
2021/07/31 00:02:30;;;;;;;6.80;2.53;;;;;;;17.26;72.62;96166.59;3576492;39;20471;-72
2021/07/31 00:04:58;;;;;;;4.87;2.53;;;;;;;17.24;72.51;96164.09;3576346;39;20768;-73
2021/07/31 00:07:26;;;;;;;6.20;2.70;;;;;;;17.29;71.85;96166.25;3577795;39;20542;-71
2021/07/31 00:09:54;;;;;;;6.10;2.90;;;;;;;17.24;72.30;96169.38;3575017;39;20477;-72
2021/07/31 00:12:22;;;;;;;4.10;1.70;;;;;;;17.18;71.70;96170.84;3567824;40;20687;-72
2021/07/31 00:14:50;;;;;;;3.80;2.27;;;;;;;17.11;72.12;96175.13;3576674;39;20461;-73
2021/07/31 00:17:19;;;;;;;6.10;2.20;;;;;;;17.07;71.13;96164.97;3574340;39;20940;-72
2021/07/31 00:19:48;;;;;;;2.00;1.50;;;;;;;16.92;71.64;96170.84;3567834;40;20464;-71
2021/07/31 00:22:16;;;;;;;4.60;2.03;;;;;;;16.93;71.09;96175.16;3578690;40;20525;-72
2021/07/31 00:24:44;;;;;;;8.47;3.63;;;;;;;16.93;70.91;96169.03;3576514;39;20935;-72
2021/07/31 00:27:12;;;;;;;10.83;1.67;;;;;;;16.88;70.57;96169.50;3576169;39;20442;-72
2021/07/31 00:29:39;;;;;;;9.40;2.10;;;;;;;16.86;71.05;96165.38;3578962;39;20820;-72
2021/07/31 00:32:08;;;;;;;3.93;1.87;;;;;;;16.82;70.96;96167.50;3578290;39;20441;-74
2021/07/31 00:34:38;;;;;;;4.80;1.50;;;;;;;16.80;71.34;96175.53;3575611;39;20453;-73
2021/07/31 00:37:05;;;;;;;6.43;2.40;;;;;;;16.72;71.71;96180.78;3579561;39;20463;-74
2021/07/31 00:39:38;;;;;;;5.50;2.30;;;;;;;16.75;71.30;96180.44;3576748;39;20980;-73
2021/07/31 00:42:06;;;;;;;5.77;1.90;;;;;;;16.77;70.56;96173.19;3577435;39;20693;-73
2021/07/31 00:44:36;;;;;;;4.17;1.87;;;;;;;16.76;70.81;96178.66;3577243;39;20465;-74
2021/07/31 00:47:04;;;;;;;4.70;1.87;;;;;;;16.74;72.23;96168.22;3574762;39;20456;-74
2021/07/31 00:49:33;;;;;;;5.80;1.53;;;;;;;16.73;71.20;96174.47;3575497;39;20811;-73
2021/07/31 00:52:04;;;;;;;4.33;2.10;;;;;;;16.80;71.26;96172.91;3577162;39;20734;-75
2021/07/31 00:54:33;;;;;;;4.50;2.00;;;;;;;16.83;71.74;96176.25;3578139;39;20822;-73
2021/07/31 00:57:02;;;;;;;6.67;1.80;;;;;;;16.73;71.51;96182.41;3578820;39;20561;-73
2021/07/31 00:59:30;;;;;;;5.77;2.33;;;;;;;16.71;71.15;96181.75;3568091;39;20475;-73
2021/07/31 01:01:58;;;;;;;4.47;1.90;;;;;;;16.69;70.56;96186.34;3574711;39;20442;-74
2021/07/31 01:04:26;;;;;;;5.23;1.73;;;;;;;16.75;69.00;96185.72;3578095;39;20917;-73
2021/07/31 01:06:54;;;;;;;6.37;2.20;;;;;;;16.78;69.89;96181.97;3580868;39;20468;-72
2021/07/31 01:09:23;;;;;;;6.53;1.77;;;;;;;16.76;68.92;96176.00;3576202;39;20714;-72
2021/07/31 01:11:51;;;;;;;2.10;1.53;;;;;;;16.71;67.73;96163.22;3566671;39;20788;-75
2021/07/31 01:14:19;;;;;;;5.07;1.63;;;;;;;16.78;67.36;96174.03;3579107;22;1309419;-75
2021/07/31 01:16:47;;;;;;;6.10;1.83;;;;;;;16.85;66.80;96177.75;3580253;39;20237;-74
2021/07/31 01:19:15;;;;;;;4.20;1.53;;;;;;;16.83;67.34;96174.41;3585764;39;20926;-71
2021/07/31 01:21:45;;;;;;;6.17;1.87;;;;;;;16.82;67.86;96185.16;3587071;39;20436;-71
2021/07/31 01:24:15;;;;;;;7.80;1.97;;;;;;;16.71;68.31;96180.91;3590026;39;20854;-73
2021/07/31 01:26:45;;;;;;;11.00;1.80;;;;;;;16.65;67.21;96182.34;3588629;39;20436;-73
2021/07/31 01:29:15;;;;;;;11.13;2.03;;;;;;;16.67;67.97;96182.22;3588534;39;20456;-72
2021/07/31 01:31:44;;;;;;;5.90;1.90;;;;;;;16.54;68.62;96182.59;3589015;39;20958;-71
2021/07/31 01:34:13;;;;;;;3.57;1.53;;;;;;;16.51;68.13;96177.63;3587066;39;20463;-71
2021/07/31 01:36:41;;;;;;;5.90;1.37;;;;;;;16.47;68.06;96181.56;3591817;39;20444;-71
2021/07/31 01:39:10;;;;;;;4.50;1.90;;;;;;;16.45;66.28;96178.25;3588204;39;20771;-72
2021/07/31 01:41:38;;;;;;;8.50;1.70;;;;;;;16.43;67.24;96186.31;3588924;39;20849;-71
2021/07/31 01:44:06;;;;;;;3.90;1.40;;;;;;;16.38;68.21;96188.56;3587793;39;20557;-72
2021/07/31 01:46:34;;;;;;;6.93;1.50;;;;;;;16.31;67.89;96184.88;3589757;39;20474;-71
2021/07/31 01:49:02;;;;;;;9.77;1.50;;;;;;;16.22;67.08;96189.25;3586998;39;20821;-73
2021/07/31 01:51:30;;;;;;;15.67;2.20;;;;;;;16.10;67.17;96182.53;3589573;39;20441;-71
2021/07/31 01:53:58;;;;;;;10.40;2.47;;;;;;;16.02;66.74;96176.19;3587471;39;20463;-73
2021/07/31 01:56:28;;;;;;;8.93;1.87;;;;;;;15.93;67.22;96184.16;3590456;39;20766;-71
2021/07/31 01:58:57;;;;;;;7.90;1.60;;;;;;;15.88;68.39;96178.50;3587621;39;20487;-73
2021/07/31 02:01:25;;;;;;;8.97;1.80;;;;;;;15.85;67.07;96182.25;3588442;39;20958;-73
2021/07/31 02:03:53;;;;;;;7.70;1.83;;;;;;;15.77;65.69;96177.72;3587183;39;20731;-71
2021/07/31 02:06:21;;;;;;;4.93;1.47;;;;;;;15.61;67.92;96177.50;3587335;39;20828;-71
2021/07/31 02:08:49;;;;;;;7.53;1.47;;;;;;;15.57;67.44;96168.22;3588998;39;20497;-73
2021/07/31 02:11:17;;;;;;;12.87;1.97;;;;;;;15.39;70.29;96165.53;3588815;39;20432;-70
2021/07/31 02:13:47;;;;;;;8.93;1.70;;;;;;;15.29;68.56;96165.59;3586798;39;20467;-74
2021/07/31 02:16:23;;;;;;;8.47;1.93;;;;;;;15.28;68.72;96171.00;3587742;39;20863;-73
2021/07/31 02:18:51;;;;;;;3.13;1.40;;;;;;;15.28;67.50;96171.00;3589515;39;20854;-71
2021/07/31 02:21:20;;;;;;;3.17;1.43;;;;;;;15.28;68.75;96166.53;3589521;39;21129;-71
2021/07/31 02:23:48;;;;;;;6.67;1.40;;;;;;;15.34;68.48;96167.78;3587634;39;20824;-71
2021/07/31 02:26:16;;;;;;;4.17;1.20;;;;;;;15.28;70.42;96176.28;3588266;39;21151;-71
2021/07/31 02:28:44;;;;;;;3.10;1.40;;;;;;;15.25;71.31;96174.78;3579956;39;21021;-73
2021/07/31 02:31:14;;;;;;;5.30;1.50;;;;;;;15.06;70.26;96177.47;3591397;39;21092;-72
2021/07/31 02:33:42;;;;;;;11.30;1.73;;;;;;;15.11;71.39;96160.25;3590522;39;20883;-71
2021/07/31 02:36:10;;;;;;;12.30;1.70;;;;;;;15.11;70.85;96165.53;3587169;39;20463;-70
2021/07/31 02:38:38;;;;;;;7.80;1.63;;;;;;;15.12;72.22;96172.44;3588605;39;20798;-71
2021/07/31 02:41:06;;;;;;;3.23;1.50;;;;;;;14.99;70.29;96154.31;3586402;39;20919;-74
2021/07/31 02:43:34;;;;;;;15.80;1.83;;;;;;;14.97;71.63;96160.69;3590219;39;20502;-73
2021/07/31 02:46:06;;;;;;;5.20;1.60;;;;;;;14.94;69.76;96167.09;3591391;39;20682;-74
2021/07/31 02:48:38;;;;;;;7.83;1.50;;;;;;;14.86;69.28;96168.75;3588558;39;20899;-74
2021/07/31 02:51:07;;;;;;;7.43;2.00;;;;;;;14.82;69.11;96169.06;3586765;39;21099;-73
2021/07/31 02:53:35;;;;;;;3.03;1.20;;;;;;;14.83;69.57;96160.16;3591319;39;20472;-72
2021/07/31 02:56:03;;;;;;;10.20;1.47;;;;;;;14.79;68.27;96155.31;3589193;39;20464;-74
2021/07/31 02:58:31;;;;;;;11.60;2.00;;;;;;;14.79;68.60;96160.59;3590445;39;20495;-73
2021/07/31 03:01:03;;;;;;;8.07;1.77;;;;;;;14.79;69.25;96161.41;3590083;39;20432;-72
2021/07/31 03:03:32;;;;;;;6.37;1.57;;;;;;;14.81;69.85;96163.91;3586889;39;20508;-73
2021/07/31 03:06:02;;;;;;;6.97;1.50;;;;;;;14.67;71.40;96162.56;3580220;39;20787;-72
2021/07/31 03:08:29;;;;;;;10.23;1.83;;;;;;;14.29;73.06;96172.16;3590555;39;20464;-72
2021/07/31 03:10:59;;;;;;;13.10;2.33;;;;;;;14.23;72.39;96165.63;3589394;39;20997;-73
2021/07/31 03:13:27;;;;;;;3.97;1.60;;;;;;;14.30;72.49;96167.69;3577166;39;20789;-72
2021/07/31 03:15:55;;;;;;;2.50;1.10;;;;;;;14.27;73.33;96167.97;3579560;39;20504;-74
2021/07/31 03:18:24;;;;;;;3.83;1.23;;;;;;;13.94;74.01;96157.72;3584725;39;20933;-71
2021/07/31 03:20:53;;;;;;;6.57;1.77;;;;;;;14.08;73.67;96167.00;3578987;39;20538;-73
2021/07/31 03:23:24;;;;;;;5.13;1.70;;;;;;;14.01;73.20;96166.72;3578202;39;20548;-73
2021/07/31 03:25:56;;;;;;;9.00;1.60;;;;;;;14.02;73.23;96173.63;3576033;39;20546;-72
2021/07/31 03:28:25;;;;;;;11.80;1.47;;;;;;;13.97;72.83;96167.94;3577191;39;20775;-72
2021/07/31 03:30:53;;;;;;;4.23;1.67;;;;;;;14.07;72.26;96162.69;3580991;39;20446;-73
2021/07/31 03:33:21;;;;;;;10.60;1.20;;;;;;;13.86;72.40;96165.47;3577011;39;20457;-72
2021/07/31 03:35:49;;;;;;;10.70;1.70;;;;;;;13.85;72.99;96161.16;3578427;39;21226;-72
2021/07/31 03:38:18;;;;;;;3.03;1.40;;;;;;;13.97;73.36;96175.03;3576241;39;21093;-72
2021/07/31 03:40:47;;;;;;;2.47;1.50;;;;;;;13.93;73.54;96176.25;3577424;39;20457;-72
2021/07/31 03:43:15;;;;;;;7.03;1.70;;;;;;;13.83;72.61;96174.44;3576324;39;20540;-73
2021/07/31 03:45:43;;;;;;;5.20;2.13;;;;;;;13.83;72.06;96170.97;3579875;39;20523;-73
2021/07/31 03:48:11;;;;;;;5.73;1.80;;;;;;;13.77;72.92;96166.25;3580275;39;20456;-72
2021/07/31 03:50:40;;;;;;;5.70;1.83;;;;;;;13.79;73.46;96172.22;3577114;39;20543;-71
2021/07/31 03:53:08;;;;;;;10.40;1.70;;;;;;;13.81;72.89;96172.91;3575998;39;20494;-73
2021/07/31 03:55:36;;;;;;;6.10;1.70;;;;;;;13.76;72.57;96169.84;3576402;39;20794;-72
2021/07/31 03:58:06;;;;;;;4.73;1.90;;;;;;;13.80;72.88;96173.91;3578063;39;20718;-70
2021/07/31 04:00:34;;;;;;;5.87;1.70;;;;;;;13.82;72.67;96169.34;3580099;39;20892;-71
2021/07/31 04:03:02;;;;;;;5.47;1.60;;;;;;;13.79;73.75;96169.59;3576067;39;20633;-70
2021/07/31 04:05:30;;;;;;;12.97;1.90;;;;;;;13.63;73.11;96157.78;3576434;39;20683;-70
2021/07/31 04:07:57;;;;;;;6.17;1.50;;;;;;;13.71;73.82;96165.00;3578078;39;20453;-71
2021/07/31 04:10:25;;;;;;;7.37;1.27;;;;;;;13.75;74.55;96168.19;3581740;39;20436;-73
2021/07/31 04:12:53;;;;;;;5.00;1.30;;;;;;;13.49;74.61;96157.34;3575693;39;20573;-71
2021/07/31 04:15:23;;;;;;;6.83;1.57;;;;;;;13.46;74.93;96163.69;3580584;39;20820;-71
2021/07/31 04:17:51;;;;;;;3.13;1.30;;;;;;;13.52;75.75;96175.47;3580011;39;20806;-73
2021/07/31 04:20:19;;;;;;;6.33;1.40;;;;;;;13.54;75.66;96171.72;3578606;39;20740;-73
2021/07/31 04:22:47;;;;;;;3.93;1.47;;;;;;;13.47;76.50;96178.50;3579980;39;20482;-71
2021/07/31 04:25:14;;;;;;;4.23;1.60;;;;;;;13.57;75.75;96182.00;3576482;39;20514;-74
2021/07/31 04:27:42;;;;;;;8.90;1.70;;;;;;;13.54;76.40;96178.81;3577520;39;20847;-71
2021/07/31 04:30:11;;;;;;;2.90;1.30;;;;;;;13.56;76.18;96182.94;3578151;39;20817;-71
2021/07/31 04:32:40;;;;;;;5.27;1.73;;;;;;;13.51;75.87;96190.44;3576668;39;20784;-71
2021/07/31 04:35:09;;;;;;;11.53;1.70;;;;;;;13.54;75.23;96187.53;3579688;39;20437;-73
2021/07/31 04:37:37;;;;;;;5.57;1.80;;;;;;;13.49;76.26;96183.66;3577368;39;20738;-71
2021/07/31 04:40:07;;;;;;;3.20;1.67;;;;;;;13.52;77.01;96188.63;3573262;39;20464;-72
2021/07/31 04:42:35;;;;;;;5.80;1.37;;;;;;;13.40;75.56;96182.63;3576381;39;20480;-72
2021/07/31 04:45:03;;;;;;;3.73;1.27;;;;;;;13.56;76.10;96190.84;3576528;39;20489;-72
2021/07/31 04:47:37;;;;;;;5.23;1.73;;;;;;;13.59;74.89;96187.97;3576836;39;20458;-71
2021/07/31 04:50:08;;;;;;;5.10;1.30;;;;;;;13.39;75.94;96194.97;3584610;39;20496;-70
2021/07/31 04:52:37;;;;;;;11.37;1.50;;;;;;;13.57;75.28;96202.22;3578981;39;20449;-71
2021/07/31 04:55:06;;;;;;;4.60;1.40;;;;;;;13.53;75.12;96191.13;3580913;39;20456;-74
2021/07/31 04:57:34;;;;;;;4.40;1.50;;;;;;;13.24;77.14;96202.31;3576586;39;20433;-73
2021/07/31 05:00:03;;;;;;;5.73;1.47;;;;;;;13.41;75.76;96198.28;3580334;39;20460;-74
2021/07/31 05:02:33;;;;;;;7.43;1.27;;;;;;;13.69;74.55;96200.31;3579516;39;20548;-74
2021/07/31 05:05:01;;;;;;;6.93;1.50;;;;;;;13.95;74.14;96190.94;3577116;39;20544;-74
2021/07/31 05:07:31;;;;;;;6.60;1.20;;;;;;;14.21;72.26;96200.94;3575836;39;20825;-74
2021/07/31 05:09:59;;;;;;;7.20;1.70;;;;;;;14.35;71.30;96203.19;3577636;39;20833;-74
2021/07/31 05:12:27;;;;;;;4.37;1.20;;;;;;;14.37;71.56;96206.50;3578617;39;21106;-74
2021/07/31 05:14:55;;;;;;;15.00;2.27;;;;;;;14.43;70.96;96200.69;3585602;39;20928;-74
2021/07/31 05:17:23;;;;;;;4.17;1.90;;;;;;;14.55;70.60;96205.81;3577761;39;20460;-74
2021/07/31 05:19:54;;;;;;;2.90;1.47;;;;;;;14.65;70.60;96201.41;3586381;39;20563;-74
2021/07/31 05:22:22;;;;;;;4.80;1.47;;;;;;;14.57;70.36;96206.53;3587302;39;20554;-74
2021/07/31 05:24:54;;;;;;;11.40;1.63;;;;;;;14.56;70.29;96211.00;3589734;39;20879;-73
2021/07/31 05:27:22;;;;;;;8.60;1.60;;;;;;;14.77;70.59;96202.91;3580943;39;20455;-76
2021/07/31 05:29:50;;;;;;;8.23;1.97;;;;;;;14.89;69.60;96210.66;3588681;39;20463;-73
2021/07/31 05:32:17;;;;;;;10.03;1.60;;;;;;;14.98;69.73;96212.47;3586613;39;20759;-73
2021/07/31 05:34:45;;;;;;;6.67;1.40;;;;;;;14.94;69.97;96213.72;3587225;39;20475;-73
2021/07/31 05:37:13;;;;;;;6.00;1.57;;;;;;;15.18;68.78;96218.50;3589949;39;20819;-73
2021/07/31 05:39:43;;;;;;;6.23;1.80;;;;;;;15.25;69.06;96216.13;3589121;39;20779;-73
2021/07/31 05:42:16;;;;;;;7.50;1.97;;;;;;;15.34;67.09;96212.63;3575198;39;20483;-74
2021/07/31 05:44:44;;;;;;;12.83;2.10;;;;;;;15.50;68.32;96210.19;3580381;39;20450;-71
2021/07/31 05:47:12;;;;;;;5.40;2.20;;;;;;;15.71;67.82;96206.50;3587865;39;20521;-72
2021/07/31 05:49:40;;;;;;;6.57;2.00;;;;;;;15.84;66.77;96212.28;3588132;39;20532;-73
2021/07/31 05:52:08;;;;;;;8.67;2.10;;;;;;;15.79;67.31;96209.25;3586617;39;20449;-72
2021/07/31 05:54:37;;;;;;;9.40;1.87;;;;;;;15.90;67.28;96216.16;3586180;39;20444;-71
2021/07/31 05:57:06;;;;;;;6.00;2.10;;;;;;;15.97;66.75;96217.22;3586831;39;20835;-74
2021/07/31 05:59:35;;;;;;;5.10;1.83;;;;;;;15.80;67.51;96211.75;3587546;39;20917;-75
2021/07/31 06:02:05;;;;;;;12.63;2.70;;;;;;;15.87;67.79;96214.63;3588982;39;20432;-73
2021/07/31 06:04:33;;;;;;;16.20;2.07;;;;;;;16.04;68.07;96215.66;3588196;39;20477;-75
2021/07/31 06:07:01;;;;;;;5.60;1.77;;;;;;;15.85;69.20;96215.75;3587657;39;20467;-71
2021/07/31 06:09:29;;;;;;;5.90;2.10;;;;;;;15.93;68.37;96202.66;3586331;39;20752;-72
2021/07/31 06:11:57;;;;;;;4.70;1.60;;;;;;;16.03;68.61;96206.06;3587717;39;20553;-71
2021/07/31 06:14:25;;;;;;;4.70;1.90;;;;;;;16.04;68.82;96212.19;3578482;39;20556;-72
2021/07/31 06:16:55;;;;;;;3.17;1.23;;;;;;;16.04;69.63;96213.00;3588403;39;20507;-72
2021/07/31 06:19:23;;;;;;;8.53;2.13;;;;;;;16.02;68.58;96210.50;3587109;39;20474;-71
2021/07/31 06:21:51;;;;;;;7.17;2.07;;;;;;;16.27;68.29;96205.50;3579316;39;20650;-71
2021/07/31 06:24:19;;;;;;;7.93;1.80;;;;;;;16.52;65.93;96205.69;3589221;39;20459;-71
2021/07/31 06:26:47;;;;;;;5.40;1.90;;;;;;;16.47;64.52;96210.63;3588865;39;20988;-71
2021/07/31 06:29:16;;;;;;;4.50;1.90;;;;;;;16.55;64.32;96208.06;3585557;39;20918;-71
2021/07/31 06:31:43;;;;;;;6.00;1.73;;;;;;;16.69;64.17;96207.50;3585955;39;20437;-73
2021/07/31 06:34:13;;;;;;;9.83;2.10;;;;;;;16.64;63.30;96208.94;3575839;39;20478;-71
2021/07/31 06:36:42;;;;;;;5.93;1.53;;;;;;;16.67;63.49;96213.94;3587129;39;20482;-75
2021/07/31 06:39:11;;;;;;;7.87;2.63;;;;;;;16.68;62.62;96215.56;3586898;39;20502;-72
2021/07/31 06:41:39;;;;;;;16.07;1.50;;;;;;;16.92;60.93;96213.16;3588486;39;20549;-73
2021/07/31 06:44:07;;;;;;;5.77;1.60;;;;;;;17.02;60.30;96212.25;3586071;39;20558;-73
2021/07/31 06:46:35;;;;;;;8.33;2.33;;;;;;;17.06;60.89;96209.13;3587703;39;20713;-72
2021/07/31 06:49:04;;;;;;;8.80;1.77;;;;;;;17.01;60.11;96214.03;3588022;39;20472;-73
2021/07/31 06:51:34;;;;;;;7.03;1.80;;;;;;;17.27;60.32;96215.84;3587913;39;20459;-72
2021/07/31 06:54:02;;;;;;;8.63;2.03;;;;;;;17.30;60.01;96210.25;3586971;39;20933;-70
2021/07/31 06:56:33;;;;;;;13.07;1.90;;;;;;;17.43;60.25;96202.72;3587823;39;20466;-71
2021/07/31 06:59:01;;;;;;;2.07;1.33;;;;;;;17.23;60.76;96206.56;3587351;39;20884;-74
2021/07/31 07:01:29;;;;;;;4.40;1.33;;;;;;;17.40;61.01;96210.97;3587248;39;20454;-69
2021/07/31 07:03:58;;;;;;;3.70;1.40;;;;;;;17.57;60.21;96204.78;3580833;39;20460;-71
2021/07/31 07:06:26;;;;;;;10.87;1.67;;;;;;;17.51;60.22;96213.34;3585709;39;21146;-73
2021/07/31 07:09:00;;;;;;;3.03;1.27;;;;;;;17.66;60.39;96194.22;3584641;39;20862;-71
2021/07/31 07:11:28;;;;;;;5.93;2.43;;;;;;;17.95;59.19;96199.16;3586653;39;20441;-71
2021/07/31 07:13:56;;;;;;;5.53;1.40;;;;;;;18.27;58.63;96206.38;3579135;39;20584;-72
2021/07/31 07:16:24;;;;;;;10.23;1.67;;;;;;;18.18;58.50;96200.22;3585806;39;20473;-71
2021/07/31 07:18:52;;;;;;;5.00;1.50;;;;;;;18.01;58.01;96201.16;3590358;39;20455;-72
2021/07/31 07:21:20;;;;;;;6.57;1.60;;;;;;;18.09;58.85;96209.16;3588266;39;20450;-71
2021/07/31 07:23:48;;;;;;;6.30;1.93;;;;;;;17.49;60.75;96204.75;3587132;39;20473;-72
2021/07/31 07:26:18;;;;;;;1.87;1.10;;;;;;;17.90;59.23;96212.91;3588394;39;20465;-74
2021/07/31 07:28:46;;;;;;;4.73;1.80;;;;;;;17.84;59.81;96202.09;3587250;39;20482;-70
2021/07/31 07:31:15;;;;;;;7.20;1.87;;;;;;;17.61;60.79;96199.19;3587504;39;20814;-71
2021/07/31 07:33:43;;;;;;;3.00;1.33;;;;;;;17.69;59.61;96204.50;3585068;39;21189;-71
2021/07/31 07:36:15;;;;;;;5.60;1.53;;;;;;;17.96;58.54;96199.00;3585950;39;20778;-72
2021/07/31 07:38:44;;;;;;;5.73;1.60;;;;;;;18.10;59.07;96202.03;3586237;39;20475;-70
2021/07/31 07:41:13;;;;;;;18.23;1.77;;;;;;;19.02;57.96;96205.44;3587681;39;21136;-72
2021/07/31 07:43:43;;;;;;;5.47;2.33;;;;;;;19.01;56.00;96211.72;3586677;39;20499;-71
2021/07/31 07:46:14;;;;;;;4.40;1.50;;;;;;;18.92;56.73;96205.59;3590115;39;20940;-70
2021/07/31 07:48:42;;;;;;;11.83;2.23;;;;;;;18.67;56.78;96206.56;3578957;39;21181;-71
2021/07/31 07:51:10;;;;;;;4.07;1.60;;;;;;;19.17;55.23;96205.59;3579371;39;20937;-72
2021/07/31 07:53:38;;;;;;;6.50;1.43;;;;;;;18.76;55.96;96200.28;3590747;39;20771;-71
2021/07/31 07:56:06;;;;;;;6.60;1.47;;;;;;;19.32;54.08;96205.72;3588745;39;20925;-70
2021/07/31 07:58:34;;;;;;;5.13;1.40;;;;;;;19.07;55.06;96207.56;3586024;39;20735;-71
2021/07/31 08:01:04;;;;;;;3.00;1.30;;;;;;;19.44;52.75;96201.69;3587668;39;20862;-71
2021/07/31 08:03:33;;;;;;;3.27;1.37;;;;;;;19.01;54.02;96209.06;3585358;39;20832;-71
2021/07/31 08:06:01;;;;;;;5.50;2.37;;;;;;;19.15;53.57;96203.09;3588963;39;20433;-71
2021/07/31 08:08:29;;;;;;;5.83;1.50;;;;;;;19.12;55.14;96197.28;3587899;39;20874;-71
2021/07/31 08:10:57;;;;;;;4.40;1.77;;;;;;;19.50;53.01;96193.06;3587426;39;20772;-70
2021/07/31 08:13:25;;;;;;;14.03;8.23;;;;;;;19.05;53.50;96198.94;3590801;39;20588;-72
2021/07/31 08:15:53;;;;;;;8.00;3.40;;;;;;;19.38;53.63;96198.91;3586695;39;20563;-70
2021/07/31 08:18:22;;;;;;;6.07;1.67;;;;;;;20.86;51.14;96191.00;3588564;39;20745;-72
2021/07/31 08:20:50;;;;;;;4.30;1.20;;;;;;;20.69;49.81;96179.66;3588753;39;20476;-71
2021/07/31 08:23:18;;;;;;;9.73;1.30;;;;;;;20.68;48.39;96184.16;3589722;39;20559;-74
2021/07/31 08:25:46;;;;;;;4.60;1.60;;;;;;;19.46;51.98;96201.53;3585544;39;20549;-69
2021/07/31 08:28:14;;;;;;;4.73;1.10;;;;;;;20.27;48.33;96181.75;3595063;39;20789;-73
2021/07/31 08:30:42;;;;;;;9.70;1.50;;;;;;;20.54;48.44;96187.53;3592916;39;20579;-72
2021/07/31 08:33:10;;;;;;;7.37;1.50;;;;;;;20.62;48.09;96184.88;3574257;39;20881;-73
2021/07/31 08:35:39;;;;;;;7.57;1.30;;;;;;;21.36;45.99;96192.16;3586379;39;20545;-70
2021/07/31 08:38:07;;;;;;;7.97;1.60;;;;;;;20.65;45.85;96181.00;3587377;39;20533;-70
2021/07/31 08:40:35;;;;;;;4.17;1.23;;;;;;;20.88;46.78;96186.31;3584593;39;20471;-71
2021/07/31 08:43:03;;;;;;;4.17;1.03;;;;;;;21.95;44.45;96186.00;3590455;39;20774;-70
2021/07/31 08:45:31;;;;;;;3.77;1.40;;;;;;;22.41;43.96;96195.56;3591577;39;21332;-72
2021/07/31 08:48:01;;;;;;;3.43;1.23;;;;;;;21.77;44.55;96189.06;3589184;39;20916;-72
2021/07/31 08:50:30;;;;;;;6.73;1.30;;;;;;;22.01;43.85;96195.09;3573302;39;20479;-71
2021/07/31 08:52:59;;;;;;;3.17;1.17;;;;;;;21.91;43.62;96198.03;3579702;39;20444;-73
2021/07/31 08:55:27;;;;;;;4.70;1.13;;;;;;;21.67;42.97;96202.66;3590584;39;20824;-72
2021/07/31 08:57:55;;;;;;;4.90;1.20;;;;;;;20.55;45.50;96192.69;3585805;39;20757;-72
2021/07/31 09:00:23;;;;;;;12.27;1.50;;;;;;;21.39;45.23;96191.81;3589477;39;20447;-73
2021/07/31 09:02:52;;;;;;;10.13;1.30;;;;;;;22.71;42.92;96193.59;3592920;39;20476;-71
2021/07/31 09:05:37;;;;;;;3.67;1.80;;;;;;;22.39;43.68;96186.94;3597713;39;20446;-71
2021/07/31 09:08:08;;;;;;;4.00;1.00;;;;;;;21.65;43.30;96190.53;3589378;39;20891;-75
2021/07/31 09:10:37;;;;;;;2.93;1.37;;;;;;;21.51;46.08;96190.34;3588225;39;20906;-72
2021/07/31 09:13:07;;;;;;;2.33;0.97;;;;;;;22.42;41.38;96190.03;3588265;39;20696;-72
2021/07/31 09:15:37;;;;;;;8.60;2.00;;;;;;;22.12;43.15;96184.75;3587196;39;20812;-73
2021/07/31 09:18:26;;;;;;;5.47;1.37;;;;;;;22.94;40.52;96185.38;3587351;39;20820;-72
2021/07/31 09:20:55;;;;;;;3.97;1.30;;;;;;;23.12;40.20;96179.59;3587575;39;20552;-73
2021/07/31 09:23:36;;;;;;;5.80;1.27;;;;;;;22.65;40.17;96192.53;3587482;39;20448;-72
2021/07/31 09:26:04;;;;;;;9.87;1.40;;;;;;;22.68;40.92;96181.47;3589693;39;20743;-73
2021/07/31 09:28:32;;;;;;;9.07;1.73;;;;;;;22.45;43.10;96186.19;3588394;39;20451;-73
2021/07/31 09:31:00;;;;;;;5.30;1.37;;;;;;;23.20;39.92;96178.63;3589598;39;20452;-73
2021/07/31 09:33:28;;;;;;;9.60;1.63;;;;;;;23.34;38.86;96183.03;3586765;39;20552;-71
2021/07/31 09:36:01;;;;;;;4.77;1.40;;;;;;;23.47;38.51;96188.47;3584235;39;20525;-73
2021/07/31 09:38:38;;;;;;;5.93;1.37;;;;;;;23.76;39.56;96178.56;3580272;39;20695;-73
2021/07/31 09:41:32;;;;;;;4.00;1.93;;;;;;;24.52;38.57;96171.44;3592528;39;20455;-72
2021/07/31 09:44:09;;;;;;;6.60;1.47;;;;;;;25.13;35.83;96167.75;3581481;39;20464;-73
2021/07/31 09:46:40;;;;;;;9.77;1.43;;;;;;;24.66;35.69;96168.59;3578699;39;20930;-73
2021/07/31 09:49:10;;;;;;;11.77;2.30;;;;;;;25.37;36.71;96172.50;3590334;39;20780;-73
2021/07/31 09:51:40;;;;;;;1.47;1.10;;;;;;;25.30;35.14;96169.00;3591242;39;20922;-73
2021/07/31 09:54:11;;;;;;;8.83;2.00;;;;;;;25.46;35.36;96162.38;3590079;39;20463;-72
2021/07/31 09:56:41;;;;;;;9.00;1.63;;;;;;;25.22;36.36;96172.72;3592006;39;20568;-71
2021/07/31 09:59:11;;;;;;;5.37;1.13;;;;;;;24.56;34.56;96168.16;3590540;39;20507;-71
2021/07/31 10:01:42;;;;;;;5.27;1.73;;;;;;;24.17;36.64;96168.84;3588415;39;20670;-71
2021/07/31 10:04:11;;;;;;;3.53;1.10;;;;;;;24.50;35.25;96152.88;3587266;39;21000;-71
2021/07/31 10:06:40;;;;;;;3.67;1.30;;;;;;;25.51;36.10;96161.75;3588848;39;20697;-71
2021/07/31 10:09:10;;;;;;;2.10;1.17;;;;;;;26.02;33.96;96160.97;3590401;39;20475;-72
2021/07/31 10:11:40;;;;;;;6.80;1.60;;;;;;;25.99;34.03;96161.41;3586944;39;20549;-72
2021/07/31 10:14:10;;;;;;;8.80;1.90;;;;;;;25.30;33.46;96160.13;3587921;39;20490;-72
2021/07/31 10:16:44;;;;;;;6.97;1.30;;;;;;;24.63;35.13;96152.91;3590010;39;20696;-72
2021/07/31 10:19:12;;;;;;;13.60;7.70;;;;;;;25.65;34.60;96149.94;3589812;39;20467;-72
2021/07/31 10:21:48;;;;;;;5.17;1.30;;;;;;;26.01;33.13;96153.97;3589310;39;20444;-73
2021/07/31 10:24:17;;;;;;;2.03;1.20;;;;;;;26.58;32.34;96159.41;3579586;39;20459;-71
2021/07/31 10:27:19;;;;;;;2.60;1.40;;;;;;;25.52;32.79;96149.97;3587908;39;21035;-72
2021/07/31 10:29:48;;;;;;;2.57;1.10;;;;;;;24.91;34.47;96159.94;3586620;39;20777;-71
2021/07/31 10:32:45;;;;;;;2.43;1.30;;;;;;;24.58;37.06;96160.75;3590087;39;20529;-71
2021/07/31 10:35:34;;;;;;;3.20;1.20;;;;;;;25.69;35.79;96155.72;3585625;39;20609;-70
2021/07/31 10:38:05;;;;;;;6.67;1.70;;;;;;;26.33;35.72;96152.16;3589984;39;20928;-71
2021/07/31 10:40:49;;;;;;;6.53;1.70;;;;;;;27.53;33.84;96155.78;3591349;39;20743;-73
2021/07/31 10:43:18;;;;;;;4.90;1.30;;;;;;;26.49;35.65;96148.13;3588698;39;20837;-72
2021/07/31 10:45:49;;;;;;;8.93;1.87;;;;;;;25.64;35.38;96153.69;3582304;39;20552;-71
2021/07/31 10:48:28;;;;;;;4.90;1.40;;;;;;;26.60;35.80;96152.84;3589587;39;21153;-71
2021/07/31 10:50:57;;;;;;;4.10;1.60;;;;;;;27.18;34.99;96158.97;3588188;39;20443;-72
2021/07/31 10:53:51;;;;;;;2.40;1.10;;;;;;;25.79;34.79;96148.03;3587857;39;20832;-71
2021/07/31 10:56:20;;;;;;;3.80;1.57;;;;;;;24.78;38.36;96149.25;3591831;39;20447;-73
2021/07/31 10:59:14;;;;;;;5.63;1.77;;;;;;;24.04;40.60;96154.41;3587764;39;20769;-73
2021/07/31 11:01:42;;;;;;;3.43;1.60;;;;;;;24.35;40.36;96157.59;3586940;39;20537;-73
2021/07/31 11:04:11;;;;;;;2.30;1.10;;;;;;;25.51;37.84;96156.41;3588875;39;20736;-72
2021/07/31 11:07:10;;;;;;;3.37;1.50;;;;;;;25.81;35.33;96151.34;3589820;39;20461;-71
2021/07/31 11:09:38;;;;;;;13.17;4.57;;;;;;;26.01;36.04;96157.47;3582455;39;20576;-72
2021/07/31 11:12:44;;;;;;;5.83;3.00;;;;;;;26.03;34.57;96163.47;3588617;39;20848;-72
2021/07/31 11:15:12;;;;;;;4.93;1.20;;;;;;;26.15;34.58;96155.56;3594203;39;20876;-70
2021/07/31 11:17:40;;;;;;;4.43;1.30;;;;;;;26.59;32.58;96151.19;3591412;39;20452;-71
2021/07/31 11:20:31;;;;;;;4.33;1.00;;;;;;;25.52;33.67;96152.66;3592327;39;20900;-72
2021/07/31 11:23:04;;;;;;;3.23;1.80;;;;;;;24.90;34.99;96154.81;3592776;39;20825;-73
2021/07/31 11:25:33;;;;;;;2.83;1.10;;;;;;;26.66;33.33;96139.56;3595745;39;20940;-73
2021/07/31 11:28:08;;;;;;;8.40;1.40;;;;;;;25.66;33.64;96135.53;3592923;39;20561;-74
2021/07/31 11:30:44;;;;;;;1.97;0.97;;;;;;;25.90;33.78;96144.69;3592218;39;20508;-72
2021/07/31 11:33:20;;;;;;;5.83;1.20;;;;;;;27.01;33.49;96142.59;3592023;39;20832;-71
2021/07/31 11:35:50;;;;;;;5.33;2.10;;;;;;;26.28;32.75;96151.16;3592841;39;20532;-72
2021/07/31 11:38:37;;;;;;;6.93;1.90;;;;;;;25.84;32.62;96154.41;3590830;39;20778;-73
2021/07/31 11:41:08;;;;;;;6.23;1.13;;;;;;;26.57;31.37;96153.22;3591319;39;20533;-74
2021/07/31 11:43:46;;;;;;;3.73;1.17;;;;;;;27.55;33.45;96149.13;3580404;39;20857;-71